sensor_id;sensor_type;location;lat;lon;timestamp;P1;durP1;ratioP1;P2;durP2;ratioP2
81036;SDS011;70521;47.468;19.306;2023-07-22T00:02:18;4.32;;;4.03;;
81036;SDS011;70521;47.468;19.306;2023-07-22T00:05:20;4.97;;;4.55;;
81036;SDS011;70521;47.468;19.306;2023-07-22T00:08:24;4.32;;;4.03;;
81036;SDS011;70521;47.468;19.306;2023-07-22T00:11:25;4.43;;;4.03;;
81036;SDS011;70521;47.468;19.306;2023-07-22T00:14:26;4.25;;;3.95;;
81036;SDS011;70521;47.468;19.306;2023-07-22T00:17:27;5.07;;;4.70;;
81036;SDS011;70521;47.468;19.306;2023-07-22T00:20:28;4.35;;;3.95;;
81036;SDS011;70521;47.468;19.306;2023-07-22T00:23:29;4.40;;;3.92;;
81036;SDS011;70521;47.468;19.306;2023-07-22T00:26:31;4.68;;;4.28;;
81036;SDS011;70521;47.468;19.306;2023-07-22T00:29:32;3.90;;;3.60;;
81036;SDS011;70521;47.468;19.306;2023-07-22T00:32:33;5.47;;;4.97;;
81036;SDS011;70521;47.468;19.306;2023-07-22T00:35:35;4.18;;;3.80;;
81036;SDS011;70521;47.468;19.306;2023-07-22T00:38:36;4.38;;;3.90;;
81036;SDS011;70521;47.468;19.306;2023-07-22T00:41:37;5.05;;;4.00;;
81036;SDS011;70521;47.468;19.306;2023-07-22T00:44:40;3.97;;;3.67;;
81036;SDS011;70521;47.468;19.306;2023-07-22T00:47:41;4.22;;;3.90;;
81036;SDS011;70521;47.468;19.306;2023-07-22T00:50:42;4.63;;;4.32;;
81036;SDS011;70521;47.468;19.306;2023-07-22T00:53:44;5.85;;;4.30;;
81036;SDS011;70521;47.468;19.306;2023-07-22T00:56:45;4.95;;;3.92;;
81036;SDS011;70521;47.468;19.306;2023-07-22T00:59:47;4.60;;;4.00;;
81036;SDS011;70521;47.468;19.306;2023-07-22T01:02:49;4.28;;;3.95;;
81036;SDS011;70521;47.468;19.306;2023-07-22T01:05:50;4.55;;;4.15;;
81036;SDS011;70521;47.468;19.306;2023-07-22T01:08:52;4.65;;;4.25;;
81036;SDS011;70521;47.468;19.306;2023-07-22T01:11:54;4.80;;;4.38;;
81036;SDS011;70521;47.468;19.306;2023-07-22T01:14:55;5.00;;;4.60;;
81036;SDS011;70521;47.468;19.306;2023-07-22T01:17:56;5.07;;;4.07;;
81036;SDS011;70521;47.468;19.306;2023-07-22T01:21:02;5.22;;;4.53;;
81036;SDS011;70521;47.468;19.306;2023-07-22T01:24:03;4.10;;;3.80;;
81036;SDS011;70521;47.468;19.306;2023-07-22T01:27:08;5.20;;;4.72;;
81036;SDS011;70521;47.468;19.306;2023-07-22T01:30:10;17.38;;;5.32;;
81036;SDS011;70521;47.468;19.306;2023-07-22T01:33:12;4.75;;;4.30;;
81036;SDS011;70521;47.468;19.306;2023-07-22T01:36:13;5.38;;;4.97;;
81036;SDS011;70521;47.468;19.306;2023-07-22T01:39:14;5.38;;;4.97;;
81036;SDS011;70521;47.468;19.306;2023-07-22T01:42:16;4.75;;;4.35;;
81036;SDS011;70521;47.468;19.306;2023-07-22T01:45:17;4.60;;;4.20;;
81036;SDS011;70521;47.468;19.306;2023-07-22T01:48:18;4.13;;;3.78;;
81036;SDS011;70521;47.468;19.306;2023-07-22T01:51:19;4.32;;;3.90;;
81036;SDS011;70521;47.468;19.306;2023-07-22T01:54:20;4.88;;;4.47;;
81036;SDS011;70521;47.468;19.306;2023-07-22T01:57:21;4.95;;;4.40;;
81036;SDS011;70521;47.468;19.306;2023-07-22T02:00:22;4.60;;;4.20;;
81036;SDS011;70521;47.468;19.306;2023-07-22T02:03:24;5.30;;;4.80;;
81036;SDS011;70521;47.468;19.306;2023-07-22T02:06:26;4.35;;;3.95;;
81036;SDS011;70521;47.468;19.306;2023-07-22T02:09:27;4.93;;;4.53;;
81036;SDS011;70521;47.468;19.306;2023-07-22T02:12:28;5.72;;;5.07;;
81036;SDS011;70521;47.468;19.306;2023-07-22T02:15:30;5.15;;;4.65;;
81036;SDS011;70521;47.468;19.306;2023-07-22T02:18:31;4.35;;;3.95;;
81036;SDS011;70521;47.468;19.306;2023-07-22T02:21:32;4.55;;;4.22;;
81036;SDS011;70521;47.468;19.306;2023-07-22T02:24:33;5.40;;;4.95;;
81036;SDS011;70521;47.468;19.306;2023-07-22T02:27:34;4.93;;;4.53;;
81036;SDS011;70521;47.468;19.306;2023-07-22T02:30:36;5.63;;;5.13;;
81036;SDS011;70521;47.468;19.306;2023-07-22T02:33:37;4.78;;;4.35;;
81036;SDS011;70521;47.468;19.306;2023-07-22T02:36:38;4.20;;;3.80;;
81036;SDS011;70521;47.468;19.306;2023-07-22T02:39:39;4.75;;;4.35;;
81036;SDS011;70521;47.468;19.306;2023-07-22T02:42:41;4.70;;;4.30;;
81036;SDS011;70521;47.468;19.306;2023-07-22T02:45:42;5.30;;;4.90;;
81036;SDS011;70521;47.468;19.306;2023-07-22T02:48:43;6.15;;;5.10;;
81036;SDS011;70521;47.468;19.306;2023-07-22T02:51:45;4.85;;;4.45;;
81036;SDS011;70521;47.468;19.306;2023-07-22T02:55:03;4.95;;;4.55;;
81036;SDS011;70521;47.468;19.306;2023-07-22T03:01:06;4.70;;;4.30;;
81036;SDS011;70521;47.468;19.306;2023-07-22T03:04:09;4.93;;;4.53;;
81036;SDS011;70521;47.468;19.306;2023-07-22T03:07:10;5.13;;;4.70;;
81036;SDS011;70521;47.468;19.306;2023-07-22T03:10:11;5.30;;;4.78;;
81036;SDS011;70521;47.468;19.306;2023-07-22T03:13:13;4.82;;;4.43;;
81036;SDS011;70521;47.468;19.306;2023-07-22T03:16:14;4.88;;;4.47;;
81036;SDS011;70521;47.468;19.306;2023-07-22T03:19:15;4.93;;;4.53;;
81036;SDS011;70521;47.468;19.306;2023-07-22T03:22:17;4.60;;;4.20;;
81036;SDS011;70521;47.468;19.306;2023-07-22T03:25:19;5.28;;;4.88;;
81036;SDS011;70521;47.468;19.306;2023-07-22T03:28:20;5.05;;;4.63;;
81036;SDS011;70521;47.468;19.306;2023-07-22T03:31:21;5.53;;;5.00;;
81036;SDS011;70521;47.468;19.306;2023-07-22T03:34:22;4.57;;;4.15;;
81036;SDS011;70521;47.468;19.306;2023-07-22T03:37:24;4.15;;;3.85;;
81036;SDS011;70521;47.468;19.306;2023-07-22T03:40:25;4.95;;;4.45;;
81036;SDS011;70521;47.468;19.306;2023-07-22T03:43:31;5.35;;;4.85;;
81036;SDS011;70521;47.468;19.306;2023-07-22T03:46:32;5.38;;;4.82;;
81036;SDS011;70521;47.468;19.306;2023-07-22T03:49:33;5.32;;;4.93;;
81036;SDS011;70521;47.468;19.306;2023-07-22T03:52:34;5.60;;;5.20;;
81036;SDS011;70521;47.468;19.306;2023-07-22T03:55:35;5.93;;;5.43;;
81036;SDS011;70521;47.468;19.306;2023-07-22T03:58:36;5.63;;;5.22;;
81036;SDS011;70521;47.468;19.306;2023-07-22T04:01:37;5.15;;;4.75;;
81036;SDS011;70521;47.468;19.306;2023-07-22T04:04:38;5.80;;;4.03;;
81036;SDS011;70521;47.468;19.306;2023-07-22T04:07:44;5.13;;;4.72;;
81036;SDS011;70521;47.468;19.306;2023-07-22T04:10:55;5.55;;;5.15;;
81036;SDS011;70521;47.468;19.306;2023-07-22T04:13:56;4.57;;;4.18;;
81036;SDS011;70521;47.468;19.306;2023-07-22T04:16:59;5.38;;;4.88;;
81036;SDS011;70521;47.468;19.306;2023-07-22T04:20:00;5.35;;;4.63;;
81036;SDS011;70521;47.468;19.306;2023-07-22T04:23:01;5.70;;;5.30;;
81036;SDS011;70521;47.468;19.306;2023-07-22T04:26:03;5.63;;;5.03;;
81036;SDS011;70521;47.468;19.306;2023-07-22T04:29:11;6.28;;;4.68;;
81036;SDS011;70521;47.468;19.306;2023-07-22T04:32:13;5.47;;;5.07;;
81036;SDS011;70521;47.468;19.306;2023-07-22T04:35:14;5.70;;;5.20;;
81036;SDS011;70521;47.468;19.306;2023-07-22T04:38:15;5.03;;;4.63;;
81036;SDS011;70521;47.468;19.306;2023-07-22T04:41:16;6.05;;;5.38;;
81036;SDS011;70521;47.468;19.306;2023-07-22T04:44:18;6.35;;;5.85;;
81036;SDS011;70521;47.468;19.306;2023-07-22T04:47:19;6.18;;;5.68;;
81036;SDS011;70521;47.468;19.306;2023-07-22T04:50:21;5.90;;;5.32;;
81036;SDS011;70521;47.468;19.306;2023-07-22T04:53:22;6.05;;;5.55;;
81036;SDS011;70521;47.468;19.306;2023-07-22T04:56:23;6.57;;;5.97;;
81036;SDS011;70521;47.468;19.306;2023-07-22T04:59:24;7.28;;;5.90;;
81036;SDS011;70521;47.468;19.306;2023-07-22T05:02:25;6.60;;;6.00;;
81036;SDS011;70521;47.468;19.306;2023-07-22T05:05:26;5.82;;;5.38;;
81036;SDS011;70521;47.468;19.306;2023-07-22T05:08:27;5.65;;;5.15;;
81036;SDS011;70521;47.468;19.306;2023-07-22T05:11:29;6.55;;;5.90;;
81036;SDS011;70521;47.468;19.306;2023-07-22T05:14:30;5.28;;;4.85;;
81036;SDS011;70521;47.468;19.306;2023-07-22T05:17:31;5.72;;;4.97;;
81036;SDS011;70521;47.468;19.306;2023-07-22T05:20:32;5.25;;;4.85;;
81036;SDS011;70521;47.468;19.306;2023-07-22T05:23:33;6.35;;;5.85;;
81036;SDS011;70521;47.468;19.306;2023-07-22T05:26:34;6.47;;;5.32;;
81036;SDS011;70521;47.468;19.306;2023-07-22T05:29:35;5.40;;;4.90;;
81036;SDS011;70521;47.468;19.306;2023-07-22T05:32:36;5.93;;;5.28;;
81036;SDS011;70521;47.468;19.306;2023-07-22T05:35:38;5.05;;;4.55;;
81036;SDS011;70521;47.468;19.306;2023-07-22T05:38:39;6.60;;;5.22;;
81036;SDS011;70521;47.468;19.306;2023-07-22T05:41:40;7.35;;;6.03;;
81036;SDS011;70521;47.468;19.306;2023-07-22T05:44:41;5.10;;;4.57;;
81036;SDS011;70521;47.468;19.306;2023-07-22T05:47:42;5.97;;;5.10;;
81036;SDS011;70521;47.468;19.306;2023-07-22T05:50:43;6.25;;;5.65;;
81036;SDS011;70521;47.468;19.306;2023-07-22T05:53:45;5.90;;;5.40;;
81036;SDS011;70521;47.468;19.306;2023-07-22T05:56:46;5.57;;;5.07;;
81036;SDS011;70521;47.468;19.306;2023-07-22T05:59:47;5.28;;;4.72;;
81036;SDS011;70521;47.468;19.306;2023-07-22T06:02:48;5.00;;;4.60;;
81036;SDS011;70521;47.468;19.306;2023-07-22T06:05:49;5.55;;;5.05;;
81036;SDS011;70521;47.468;19.306;2023-07-22T06:08:50;6.03;;;4.60;;
81036;SDS011;70521;47.468;19.306;2023-07-22T06:11:51;5.05;;;4.65;;
81036;SDS011;70521;47.468;19.306;2023-07-22T06:14:52;5.93;;;4.72;;
81036;SDS011;70521;47.468;19.306;2023-07-22T06:17:54;6.13;;;5.40;;
81036;SDS011;70521;47.468;19.306;2023-07-22T06:20:55;6.07;;;5.57;;
81036;SDS011;70521;47.468;19.306;2023-07-22T06:23:56;5.35;;;4.95;;
81036;SDS011;70521;47.468;19.306;2023-07-22T06:26:57;5.45;;;4.95;;
81036;SDS011;70521;47.468;19.306;2023-07-22T06:29:58;4.45;;;4.05;;
81036;SDS011;70521;47.468;19.306;2023-07-22T06:32:59;5.38;;;4.97;;
81036;SDS011;70521;47.468;19.306;2023-07-22T06:36:01;5.15;;;4.70;;
81036;SDS011;70521;47.468;19.306;2023-07-22T06:39:02;5.85;;;5.35;;
81036;SDS011;70521;47.468;19.306;2023-07-22T06:42:03;6.03;;;5.53;;
81036;SDS011;70521;47.468;19.306;2023-07-22T06:45:04;7.18;;;5.55;;
81036;SDS011;70521;47.468;19.306;2023-07-22T06:48:06;5.13;;;4.65;;
81036;SDS011;70521;47.468;19.306;2023-07-22T06:51:07;5.97;;;5.53;;
81036;SDS011;70521;47.468;19.306;2023-07-22T06:54:08;5.13;;;4.72;;
81036;SDS011;70521;47.468;19.306;2023-07-22T06:57:09;5.63;;;5.13;;
81036;SDS011;70521;47.468;19.306;2023-07-22T07:00:11;5.82;;;5.43;;
81036;SDS011;70521;47.468;19.306;2023-07-22T07:03:12;4.82;;;4.32;;
81036;SDS011;70521;47.468;19.306;2023-07-22T07:06:13;5.30;;;4.80;;
81036;SDS011;70521;47.468;19.306;2023-07-22T07:09:14;5.93;;;5.32;;
81036;SDS011;70521;47.468;19.306;2023-07-22T07:12:16;5.50;;;5.00;;
81036;SDS011;70521;47.468;19.306;2023-07-22T07:15:17;5.15;;;4.70;;
81036;SDS011;70521;47.468;19.306;2023-07-22T07:18:18;5.63;;;5.13;;
81036;SDS011;70521;47.468;19.306;2023-07-22T07:21:19;5.07;;;4.65;;
81036;SDS011;70521;47.468;19.306;2023-07-22T07:24:20;6.32;;;4.70;;
81036;SDS011;70521;47.468;19.306;2023-07-22T07:27:21;5.00;;;4.50;;
81036;SDS011;70521;47.468;19.306;2023-07-22T07:30:22;5.78;;;4.78;;
81036;SDS011;70521;47.468;19.306;2023-07-22T07:33:24;5.35;;;4.28;;
81036;SDS011;70521;47.468;19.306;2023-07-22T07:36:25;4.60;;;4.20;;
81036;SDS011;70521;47.468;19.306;2023-07-22T07:39:26;4.03;;;3.63;;
81036;SDS011;70521;47.468;19.306;2023-07-22T07:42:27;5.45;;;4.07;;
81036;SDS011;70521;47.468;19.306;2023-07-22T07:45:28;4.57;;;4.18;;
81036;SDS011;70521;47.468;19.306;2023-07-22T07:48:29;5.13;;;4.18;;
81036;SDS011;70521;47.468;19.306;2023-07-22T07:51:31;4.68;;;4.25;;
81036;SDS011;70521;47.468;19.306;2023-07-22T07:54:32;4.53;;;3.65;;
81036;SDS011;70521;47.468;19.306;2023-07-22T07:57:34;4.28;;;3.88;;
81036;SDS011;70521;47.468;19.306;2023-07-22T08:00:36;4.35;;;3.95;;
81036;SDS011;70521;47.468;19.306;2023-07-22T08:03:38;4.10;;;3.70;;
81036;SDS011;70521;47.468;19.306;2023-07-22T08:06:39;4.35;;;3.60;;
81036;SDS011;70521;47.468;19.306;2023-07-22T08:09:40;4.95;;;4.50;;
81036;SDS011;70521;47.468;19.306;2023-07-22T08:12:42;4.05;;;3.75;;
81036;SDS011;70521;47.468;19.306;2023-07-22T08:15:43;4.32;;;3.92;;
81036;SDS011;70521;47.468;19.306;2023-07-22T08:18:44;4.82;;;4.43;;
81036;SDS011;70521;47.468;19.306;2023-07-22T08:21:48;4.25;;;3.95;;
81036;SDS011;70521;47.468;19.306;2023-07-22T08:24:49;5.15;;;4.63;;
81036;SDS011;70521;47.468;19.306;2023-07-22T08:27:50;4.55;;;4.15;;
81036;SDS011;70521;47.468;19.306;2023-07-22T08:30:54;4.45;;;4.05;;
81036;SDS011;70521;47.468;19.306;2023-07-22T08:33:55;4.47;;;4.13;;
81036;SDS011;70521;47.468;19.306;2023-07-22T08:36:57;4.10;;;3.78;;
81036;SDS011;70521;47.468;19.306;2023-07-22T08:39:58;5.82;;;4.28;;
81036;SDS011;70521;47.468;19.306;2023-07-22T08:42:59;4.05;;;3.75;;
81036;SDS011;70521;47.468;19.306;2023-07-22T08:46:01;3.80;;;3.35;;
81036;SDS011;70521;47.468;19.306;2023-07-22T08:49:02;3.35;;;3.05;;
81036;SDS011;70521;47.468;19.306;2023-07-22T08:52:05;4.60;;;4.00;;
81036;SDS011;70521;47.468;19.306;2023-07-22T08:55:06;3.85;;;3.55;;
81036;SDS011;70521;47.468;19.306;2023-07-22T08:58:09;4.10;;;3.75;;
81036;SDS011;70521;47.468;19.306;2023-07-22T09:01:10;4.18;;;3.80;;
81036;SDS011;70521;47.468;19.306;2023-07-22T09:04:12;3.90;;;3.60;;
81036;SDS011;70521;47.468;19.306;2023-07-22T09:07:13;3.95;;;3.65;;
81036;SDS011;70521;47.468;19.306;2023-07-22T09:10:15;3.50;;;3.20;;
81036;SDS011;70521;47.468;19.306;2023-07-22T09:13:17;3.75;;;3.20;;
81036;SDS011;70521;47.468;19.306;2023-07-22T09:16:19;3.55;;;3.25;;
81036;SDS011;70521;47.468;19.306;2023-07-22T09:19:21;3.45;;;3.15;;
81036;SDS011;70521;47.468;19.306;2023-07-22T09:22:25;3.47;;;3.10;;
81036;SDS011;70521;47.468;19.306;2023-07-22T09:25:28;4.85;;;3.50;;
81036;SDS011;70521;47.468;19.306;2023-07-22T09:28:33;3.90;;;3.15;;
81036;SDS011;70521;47.468;19.306;2023-07-22T09:31:48;4.78;;;3.30;;
81036;SDS011;70521;47.468;19.306;2023-07-22T09:34:56;3.45;;;3.15;;
81036;SDS011;70521;47.468;19.306;2023-07-22T09:37:58;3.67;;;3.42;;
81036;SDS011;70521;47.468;19.306;2023-07-22T09:40:59;3.00;;;2.70;;
81036;SDS011;70521;47.468;19.306;2023-07-22T09:44:04;3.80;;;3.40;;
81036;SDS011;70521;47.468;19.306;2023-07-22T09:47:05;2.83;;;2.63;;
81036;SDS011;70521;47.468;19.306;2023-07-22T09:50:09;3.17;;;2.97;;
81036;SDS011;70521;47.468;19.306;2023-07-22T09:53:14;2.85;;;2.55;;
81036;SDS011;70521;47.468;19.306;2023-07-22T09:56:16;5.95;;;2.97;;
81036;SDS011;70521;47.468;19.306;2023-07-22T09:59:17;2.95;;;2.75;;
81036;SDS011;70521;47.468;19.306;2023-07-22T10:02:18;3.58;;;3.28;;
81036;SDS011;70521;47.468;19.306;2023-07-22T10:05:21;4.38;;;3.08;;
81036;SDS011;70521;47.468;19.306;2023-07-22T10:08:23;2.80;;;2.58;;
81036;SDS011;70521;47.468;19.306;2023-07-22T10:11:25;2.53;;;2.33;;
81036;SDS011;70521;47.468;19.306;2023-07-22T10:14:27;3.03;;;2.83;;
81036;SDS011;70521;47.468;19.306;2023-07-22T10:17:28;2.88;;;2.67;;
81036;SDS011;70521;47.468;19.306;2023-07-22T10:20:30;3.75;;;2.60;;
81036;SDS011;70521;47.468;19.306;2023-07-22T10:26:36;2.60;;;2.20;;
81036;SDS011;70521;47.468;19.306;2023-07-22T10:29:37;2.42;;;2.22;;
81036;SDS011;70521;47.468;19.306;2023-07-22T10:32:40;3.38;;;2.50;;
81036;SDS011;70521;47.468;19.306;2023-07-22T10:35:42;2.35;;;2.08;;
81036;SDS011;70521;47.468;19.306;2023-07-22T10:39:06;2.58;;;2.38;;
81036;SDS011;70521;47.468;19.306;2023-07-22T10:42:07;2.67;;;2.25;;
81036;SDS011;70521;47.468;19.306;2023-07-22T10:45:24;2.33;;;2.13;;
81036;SDS011;70521;47.468;19.306;2023-07-22T10:48:26;2.22;;;2.00;;
81036;SDS011;70521;47.468;19.306;2023-07-22T10:51:35;2.50;;;2.30;;
81036;SDS011;70521;47.468;19.306;2023-07-22T10:54:36;1.98;;;1.88;;
81036;SDS011;70521;47.468;19.306;2023-07-22T10:57:47;3.50;;;2.35;;
81036;SDS011;70521;47.468;19.306;2023-07-22T11:07:11;2.08;;;1.83;;
81036;SDS011;70521;47.468;19.306;2023-07-22T11:10:16;2.00;;;1.90;;
81036;SDS011;70521;47.468;19.306;2023-07-22T11:13:17;2.53;;;2.28;;
81036;SDS011;70521;47.468;19.306;2023-07-22T11:16:18;2.60;;;2.22;;
81036;SDS011;70521;47.468;19.306;2023-07-22T11:19:21;2.25;;;2.03;;
81036;SDS011;70521;47.468;19.306;2023-07-22T11:22:23;2.28;;;2.08;;
81036;SDS011;70521;47.468;19.306;2023-07-22T11:25:24;2.60;;;1.95;;
81036;SDS011;70521;47.468;19.306;2023-07-22T11:28:27;2.22;;;2.00;;
81036;SDS011;70521;47.468;19.306;2023-07-22T11:31:34;2.33;;;2.13;;
81036;SDS011;70521;47.468;19.306;2023-07-22T11:34:37;2.40;;;1.88;;
81036;SDS011;70521;47.468;19.306;2023-07-22T11:37:41;2.22;;;2.03;;
81036;SDS011;70521;47.468;19.306;2023-07-22T11:40:43;1.92;;;1.73;;
81036;SDS011;70521;47.468;19.306;2023-07-22T11:43:44;2.78;;;1.73;;
81036;SDS011;70521;47.468;19.306;2023-07-22T11:49:52;3.72;;;2.00;;
81036;SDS011;70521;47.468;19.306;2023-07-22T11:52:53;2.08;;;1.92;;
81036;SDS011;70521;47.468;19.306;2023-07-22T11:55:57;2.00;;;1.80;;
81036;SDS011;70521;47.468;19.306;2023-07-22T11:58:59;2.40;;;2.20;;
81036;SDS011;70521;47.468;19.306;2023-07-22T12:02:00;1.85;;;1.67;;
81036;SDS011;70521;47.468;19.306;2023-07-22T12:05:03;2.65;;;2.45;;
81036;SDS011;70521;47.468;19.306;2023-07-22T12:08:08;2.53;;;2.33;;
81036;SDS011;70521;47.468;19.306;2023-07-22T12:11:18;2.00;;;1.80;;
81036;SDS011;70521;47.468;19.306;2023-07-22T12:17:21;2.10;;;1.80;;
81036;SDS011;70521;47.468;19.306;2023-07-22T12:20:33;2.85;;;2.28;;
81036;SDS011;70521;47.468;19.306;2023-07-22T12:23:35;2.15;;;1.95;;
81036;SDS011;70521;47.468;19.306;2023-07-22T12:26:37;2.20;;;1.60;;
81036;SDS011;70521;47.468;19.306;2023-07-22T12:29:38;2.17;;;1.98;;
81036;SDS011;70521;47.468;19.306;2023-07-22T12:32:39;2.20;;;1.85;;
81036;SDS011;70521;47.468;19.306;2023-07-22T12:35:40;2.42;;;2.17;;
81036;SDS011;70521;47.468;19.306;2023-07-22T12:38:41;1.83;;;1.52;;
81036;SDS011;70521;47.468;19.306;2023-07-22T12:41:43;1.58;;;1.40;;
81036;SDS011;70521;47.468;19.306;2023-07-22T12:44:44;1.83;;;1.73;;
81036;SDS011;70521;47.468;19.306;2023-07-22T12:47:45;1.70;;;1.60;;
81036;SDS011;70521;47.468;19.306;2023-07-22T12:50:47;1.67;;;1.58;;
81036;SDS011;70521;47.468;19.306;2023-07-22T12:53:48;1.73;;;1.60;;
81036;SDS011;70521;47.468;19.306;2023-07-22T12:56:49;2.63;;;1.70;;
81036;SDS011;70521;47.468;19.306;2023-07-22T12:59:50;1.83;;;1.63;;
81036;SDS011;70521;47.468;19.306;2023-07-22T13:02:51;1.88;;;1.63;;
81036;SDS011;70521;47.468;19.306;2023-07-22T13:05:53;2.40;;;1.92;;
81036;SDS011;70521;47.468;19.306;2023-07-22T13:08:54;2.00;;;1.52;;
81036;SDS011;70521;47.468;19.306;2023-07-22T13:11:55;1.77;;;1.67;;
81036;SDS011;70521;47.468;19.306;2023-07-22T13:14:56;2.38;;;1.67;;
81036;SDS011;70521;47.468;19.306;2023-07-22T13:17:57;2.05;;;1.42;;
81036;SDS011;70521;47.468;19.306;2023-07-22T13:20:58;1.70;;;1.60;;
81036;SDS011;70521;47.468;19.306;2023-07-22T13:24:00;2.58;;;1.85;;
81036;SDS011;70521;47.468;19.306;2023-07-22T13:27:01;1.58;;;1.40;;
81036;SDS011;70521;47.468;19.306;2023-07-22T13:30:02;1.80;;;1.70;;
81036;SDS011;70521;47.468;19.306;2023-07-22T13:33:03;1.88;;;1.75;;
81036;SDS011;70521;47.468;19.306;2023-07-22T13:36:05;2.15;;;1.95;;
81036;SDS011;70521;47.468;19.306;2023-07-22T13:39:06;1.75;;;1.65;;
81036;SDS011;70521;47.468;19.306;2023-07-22T13:42:08;1.80;;;1.70;;
81036;SDS011;70521;47.468;19.306;2023-07-22T13:45:09;1.95;;;1.85;;
81036;SDS011;70521;47.468;19.306;2023-07-22T13:48:10;2.00;;;1.77;;
81036;SDS011;70521;47.468;19.306;2023-07-22T13:51:12;1.95;;;1.77;;
81036;SDS011;70521;47.468;19.306;2023-07-22T13:54:13;2.35;;;2.15;;
81036;SDS011;70521;47.468;19.306;2023-07-22T13:57:15;2.85;;;1.70;;
81036;SDS011;70521;47.468;19.306;2023-07-22T14:00:16;1.92;;;1.70;;
81036;SDS011;70521;47.468;19.306;2023-07-22T14:03:17;1.65;;;1.50;;
81036;SDS011;70521;47.468;19.306;2023-07-22T14:06:18;1.92;;;1.77;;
81036;SDS011;70521;47.468;19.306;2023-07-22T14:09:20;2.00;;;1.85;;
81036;SDS011;70521;47.468;19.306;2023-07-22T14:12:21;1.83;;;1.73;;
81036;SDS011;70521;47.468;19.306;2023-07-22T14:15:22;1.80;;;1.70;;
81036;SDS011;70521;47.468;19.306;2023-07-22T14:18:23;1.95;;;1.75;;
81036;SDS011;70521;47.468;19.306;2023-07-22T14:21:25;2.10;;;1.92;;
81036;SDS011;70521;47.468;19.306;2023-07-22T14:24:26;1.85;;;1.70;;
81036;SDS011;70521;47.468;19.306;2023-07-22T14:27:27;2.47;;;1.98;;
81036;SDS011;70521;47.468;19.306;2023-07-22T14:30:28;2.30;;;2.10;;
81036;SDS011;70521;47.468;19.306;2023-07-22T14:33:29;2.38;;;2.17;;
81036;SDS011;70521;47.468;19.306;2023-07-22T14:36:30;2.28;;;2.08;;
81036;SDS011;70521;47.468;19.306;2023-07-22T14:39:31;2.30;;;2.10;;
81036;SDS011;70521;47.468;19.306;2023-07-22T14:42:33;1.95;;;1.80;;
81036;SDS011;70521;47.468;19.306;2023-07-22T14:45:34;1.83;;;1.73;;
81036;SDS011;70521;47.468;19.306;2023-07-22T14:48:35;2.55;;;2.20;;
81036;SDS011;70521;47.468;19.306;2023-07-22T14:51:36;2.28;;;2.00;;
81036;SDS011;70521;47.468;19.306;2023-07-22T14:54:37;2.33;;;2.00;;
81036;SDS011;70521;47.468;19.306;2023-07-22T14:57:39;2.10;;;1.90;;
81036;SDS011;70521;47.468;19.306;2023-07-22T15:00:40;3.15;;;2.33;;
81036;SDS011;70521;47.468;19.306;2023-07-22T15:03:42;1.90;;;1.80;;
81036;SDS011;70521;47.468;19.306;2023-07-22T15:06:43;2.13;;;1.92;;
81036;SDS011;70521;47.468;19.306;2023-07-22T15:09:44;1.80;;;1.70;;
81036;SDS011;70521;47.468;19.306;2023-07-22T15:12:45;2.53;;;2.10;;
81036;SDS011;70521;47.468;19.306;2023-07-22T15:15:46;2.72;;;2.53;;
81036;SDS011;70521;47.468;19.306;2023-07-22T15:18:47;2.10;;;1.90;;
81036;SDS011;70521;47.468;19.306;2023-07-22T15:21:48;2.10;;;1.90;;
81036;SDS011;70521;47.468;19.306;2023-07-22T15:24:49;2.30;;;1.77;;
81036;SDS011;70521;47.468;19.306;2023-07-22T15:27:51;2.80;;;1.85;;
81036;SDS011;70521;47.468;19.306;2023-07-22T15:30:55;2.25;;;2.05;;
81036;SDS011;70521;47.468;19.306;2023-07-22T15:33:56;2.88;;;2.03;;
81036;SDS011;70521;47.468;19.306;2023-07-22T15:36:57;2.05;;;1.85;;
81036;SDS011;70521;47.468;19.306;2023-07-22T15:39:58;1.90;;;1.70;;
81036;SDS011;70521;47.468;19.306;2023-07-22T15:42:59;2.58;;;2.33;;
81036;SDS011;70521;47.468;19.306;2023-07-22T15:46:01;2.58;;;2.17;;
81036;SDS011;70521;47.468;19.306;2023-07-22T15:49:02;2.15;;;1.95;;
81036;SDS011;70521;47.468;19.306;2023-07-22T15:52:03;2.00;;;1.80;;
81036;SDS011;70521;47.468;19.306;2023-07-22T15:55:05;2.15;;;1.80;;
81036;SDS011;70521;47.468;19.306;2023-07-22T15:58:06;3.00;;;2.42;;
81036;SDS011;70521;47.468;19.306;2023-07-22T16:01:08;2.95;;;2.75;;
81036;SDS011;70521;47.468;19.306;2023-07-22T16:04:10;2.53;;;2.33;;
81036;SDS011;70521;47.468;19.306;2023-07-22T16:07:11;1.92;;;1.70;;
81036;SDS011;70521;47.468;19.306;2023-07-22T16:10:12;2.95;;;1.98;;
81036;SDS011;70521;47.468;19.306;2023-07-22T16:13:13;2.17;;;1.98;;
81036;SDS011;70521;47.468;19.306;2023-07-22T16:16:14;2.55;;;2.35;;
81036;SDS011;70521;47.468;19.306;2023-07-22T16:19:15;2.53;;;2.30;;
81036;SDS011;70521;47.468;19.306;2023-07-22T16:22:16;2.28;;;2.03;;
81036;SDS011;70521;47.468;19.306;2023-07-22T16:25:17;2.90;;;2.08;;
81036;SDS011;70521;47.468;19.306;2023-07-22T16:28:19;2.40;;;2.20;;
81036;SDS011;70521;47.468;19.306;2023-07-22T16:31:20;3.55;;;2.53;;
81036;SDS011;70521;47.468;19.306;2023-07-22T16:34:21;7.47;;;3.00;;
81036;SDS011;70521;47.468;19.306;2023-07-22T16:37:22;2.50;;;2.30;;
81036;SDS011;70521;47.468;19.306;2023-07-22T16:40:23;2.10;;;1.90;;
81036;SDS011;70521;47.468;19.306;2023-07-22T16:43:24;2.90;;;2.47;;
81036;SDS011;70521;47.468;19.306;2023-07-22T16:46:25;2.85;;;2.40;;
81036;SDS011;70521;47.468;19.306;2023-07-22T16:49:27;2.25;;;2.05;;
81036;SDS011;70521;47.468;19.306;2023-07-22T16:52:28;2.70;;;2.50;;
81036;SDS011;70521;47.468;19.306;2023-07-22T16:55:29;2.75;;;2.55;;
81036;SDS011;70521;47.468;19.306;2023-07-22T16:58:30;2.55;;;2.20;;
81036;SDS011;70521;47.468;19.306;2023-07-22T17:01:32;3.58;;;2.63;;
81036;SDS011;70521;47.468;19.306;2023-07-22T17:04:35;2.58;;;2.38;;
81036;SDS011;70521;47.468;19.306;2023-07-22T17:07:37;2.88;;;2.67;;
81036;SDS011;70521;47.468;19.306;2023-07-22T17:10:39;3.47;;;3.22;;
81036;SDS011;70521;47.468;19.306;2023-07-22T17:13:40;2.83;;;2.63;;
81036;SDS011;70521;47.468;19.306;2023-07-22T17:16:41;2.78;;;2.45;;
81036;SDS011;70521;47.468;19.306;2023-07-22T17:19:42;2.53;;;2.25;;
81036;SDS011;70521;47.468;19.306;2023-07-22T17:22:44;2.33;;;2.13;;
81036;SDS011;70521;47.468;19.306;2023-07-22T17:25:45;2.35;;;2.15;;
81036;SDS011;70521;47.468;19.306;2023-07-22T17:28:46;2.60;;;2.40;;
81036;SDS011;70521;47.468;19.306;2023-07-22T17:31:47;2.90;;;2.70;;
81036;SDS011;70521;47.468;19.306;2023-07-22T17:34:48;4.20;;;2.58;;
81036;SDS011;70521;47.468;19.306;2023-07-22T17:37:49;2.20;;;2.00;;
81036;SDS011;70521;47.468;19.306;2023-07-22T17:40:50;2.40;;;2.13;;
81036;SDS011;70521;47.468;19.306;2023-07-22T17:43:51;2.95;;;2.75;;
81036;SDS011;70521;47.468;19.306;2023-07-22T17:46:53;3.17;;;2.88;;
81036;SDS011;70521;47.468;19.306;2023-07-22T17:49:54;3.72;;;2.60;;
81036;SDS011;70521;47.468;19.306;2023-07-22T17:52:55;2.45;;;2.25;;
81036;SDS011;70521;47.468;19.306;2023-07-22T17:55:56;3.17;;;2.88;;
81036;SDS011;70521;47.468;19.306;2023-07-22T17:58:57;3.33;;;2.75;;
81036;SDS011;70521;47.468;19.306;2023-07-22T18:01:58;3.40;;;3.10;;
81036;SDS011;70521;47.468;19.306;2023-07-22T18:05:01;4.90;;;3.90;;
81036;SDS011;70521;47.468;19.306;2023-07-22T18:08:03;4.18;;;3.80;;
81036;SDS011;70521;47.468;19.306;2023-07-22T18:11:04;4.22;;;3.83;;
81036;SDS011;70521;47.468;19.306;2023-07-22T18:14:06;4.40;;;3.42;;
81036;SDS011;70521;47.468;19.306;2023-07-22T18:17:07;4.30;;;3.28;;